sensor_id;sensor_type;location;lat;lon;timestamp;pressure;altitude;pressure_sealevel;temperature;humidity
75146;BME280;63641;46.526;24.612;2022-10-31T00:01:12;97847.09;;;12.51;73.48
75146;BME280;63641;46.526;24.612;2022-10-31T00:03:39;97839.25;;;12.50;73.47
75146;BME280;63641;46.526;24.612;2022-10-31T00:06:06;97852.50;;;12.56;73.57
75146;BME280;63641;46.526;24.612;2022-10-31T00:08:33;97838.13;;;12.56;73.36
75146;BME280;63641;46.526;24.612;2022-10-31T00:11:00;97836.53;;;12.50;73.35
75146;BME280;63641;46.526;24.612;2022-10-31T00:13:27;97837.84;;;12.57;73.17
75146;BME280;63641;46.526;24.612;2022-10-31T00:15:53;97819.19;;;12.46;73.26
75146;BME280;63641;46.526;24.612;2022-10-31T00:18:20;97825.38;;;12.51;73.14
75146;BME280;63641;46.526;24.612;2022-10-31T00:20:47;97839.44;;;12.58;73.18
75146;BME280;63641;46.526;24.612;2022-10-31T00:23:14;97838.66;;;12.58;73.26
75146;BME280;63641;46.526;24.612;2022-10-31T00:25:40;97837.06;;;12.52;73.34
75146;BME280;63641;46.526;24.612;2022-10-31T00:28:09;97851.72;;;12.51;73.23
75146;BME280;63641;46.526;24.612;2022-10-31T00:30:38;97841.22;;;12.39;73.72
75146;BME280;63641;46.526;24.612;2022-10-31T00:33:05;97837.47;;;12.30;73.73
75146;BME280;63641;46.526;24.612;2022-10-31T00:35:32;97843.16;;;12.33;73.77
75146;BME280;63641;46.526;24.612;2022-10-31T00:37:58;97827.44;;;12.30;73.78
75146;BME280;63641;46.526;24.612;2022-10-31T00:40:25;97839.84;;;12.37;73.51
75146;BME280;63641;46.526;24.612;2022-10-31T00:42:52;97819.84;;;12.27;73.59
75146;BME280;63641;46.526;24.612;2022-10-31T00:45:19;97828.47;;;12.35;73.77
75146;BME280;63641;46.526;24.612;2022-10-31T00:47:47;97819.28;;;12.30;73.50
75146;BME280;63641;46.526;24.612;2022-10-31T00:50:13;97828.50;;;12.29;73.66
75146;BME280;63641;46.526;24.612;2022-10-31T00:52:40;97819.28;;;12.30;73.72
75146;BME280;63641;46.526;24.612;2022-10-31T00:55:07;97840.69;;;12.32;73.91
75146;BME280;63641;46.526;24.612;2022-10-31T00:57:34;97835.81;;;12.29;73.56
75146;BME280;63641;46.526;24.612;2022-10-31T01:00:01;97841.00;;;12.25;73.77
75146;BME280;63641;46.526;24.612;2022-10-31T01:02:27;97836.97;;;12.23;73.78
75146;BME280;63641;46.526;24.612;2022-10-31T01:04:54;97820.44;;;12.19;74.00
75146;BME280;63641;46.526;24.612;2022-10-31T01:07:21;97824.22;;;12.18;74.01
75146;BME280;63641;46.526;24.612;2022-10-31T01:09:48;97838.28;;;12.25;74.02
75146;BME280;63641;46.526;24.612;2022-10-31T01:12:15;97815.56;;;12.16;74.12
75146;BME280;63641;46.526;24.612;2022-10-31T01:14:43;97825.06;;;12.14;74.10
75146;BME280;63641;46.526;24.612;2022-10-31T01:17:11;97830.47;;;12.14;74.10
75146;BME280;63641;46.526;24.612;2022-10-31T01:19:38;97827.53;;;12.10;74.33
75146;BME280;63641;46.526;24.612;2022-10-31T01:22:05;97824.53;;;12.12;74.27
75146;BME280;63641;46.526;24.612;2022-10-31T01:24:32;97827.53;;;12.10;74.50
75146;BME280;63641;46.526;24.612;2022-10-31T01:26:59;97819.38;;;12.10;74.51
75146;BME280;63641;46.526;24.612;2022-10-31T01:29:25;97831.59;;;12.13;74.39
75146;BME280;63641;46.526;24.612;2022-10-31T01:31:52;97835.06;;;12.18;74.43
75146;BME280;63641;46.526;24.612;2022-10-31T01:34:19;97828.56;;;12.19;74.26
75146;BME280;63641;46.526;24.612;2022-10-31T01:36:46;97833.41;;;12.22;74.14
75146;BME280;63641;46.526;24.612;2022-10-31T01:39:18;97827.19;;;12.27;74.10
75146;BME280;63641;46.526;24.612;2022-10-31T01:41:51;97827.19;;;12.27;74.02
75146;BME280;63641;46.526;24.612;2022-10-31T01:49:24;97822.00;;;12.30;74.14
75146;BME280;63641;46.526;24.612;2022-10-31T01:51:58;97822.25;;;12.34;73.93
75146;BME280;63641;46.526;24.612;2022-10-31T01:54:32;97822.50;;;12.38;74.16
75146;BME280;63641;46.526;24.612;2022-10-31T01:57:02;97821.41;;;12.39;73.84
75146;BME280;63641;46.526;24.612;2022-10-31T01:59:32;97831.16;;;12.40;73.90
75146;BME280;63641;46.526;24.612;2022-10-31T02:02:00;97829.00;;;12.42;73.81
75146;BME280;63641;46.526;24.612;2022-10-31T02:04:27;97827.34;;;12.46;73.67
75146;BME280;63641;46.526;24.612;2022-10-31T02:07:00;97820.56;;;12.43;73.60
75146;BME280;63641;46.526;24.612;2022-10-31T02:09:30;97824.88;;;12.44;73.72
75146;BME280;63641;46.526;24.612;2022-10-31T02:11:59;97837.06;;;12.52;73.67
75146;BME280;63641;46.526;24.612;2022-10-31T02:14:28;97830.53;;;12.53;73.65
75146;BME280;63641;46.526;24.612;2022-10-31T02:16:56;97825.69;;;12.50;73.43
75146;BME280;63641;46.526;24.612;2022-10-31T02:19:41;97839.19;;;12.55;73.65
75146;BME280;63641;46.526;24.612;2022-10-31T02:22:18;97836.25;;;12.51;73.68
75146;BME280;63641;46.526;24.612;2022-10-31T02:28:05;97843.56;;;12.56;73.44
75146;BME280;63641;46.526;24.612;2022-10-31T02:31:04;97843.03;;;12.54;73.54
75146;BME280;63641;46.526;24.612;2022-10-31T02:33:51;97839.19;;;12.55;73.58
75146;BME280;63641;46.526;24.612;2022-10-31T02:36:41;97826.22;;;12.47;73.44
75146;BME280;63641;46.526;24.612;2022-10-31T02:39:32;97832.72;;;12.51;73.56
75146;BME280;63641;46.526;24.612;2022-10-31T02:45:14;97841.91;;;12.55;73.52
75146;BME280;63641;46.526;24.612;2022-10-31T02:47:48;97826.47;;;12.50;73.62
75146;BME280;63641;46.526;24.612;2022-10-31T02:50:25;97843.56;;;12.51;73.61
75146;BME280;63641;46.526;24.612;2022-10-31T02:52:53;97849.00;;;12.51;73.75
75146;BME280;63641;46.526;24.612;2022-10-31T02:57:54;97846.34;;;12.41;73.84
75146;BME280;63641;46.526;24.612;2022-10-31T03:00:24;97850.16;;;12.45;73.99
75146;BME280;63641;46.526;24.612;2022-10-31T03:08:09;97850.72;;;12.37;74.10
75146;BME280;63641;46.526;24.612;2022-10-31T03:15:51;97854.56;;;12.30;74.29
75146;BME280;63641;46.526;24.612;2022-10-31T03:18:25;97854.31;;;12.27;74.40
75146;BME280;63641;46.526;24.612;2022-10-31T03:20:59;97843.75;;;12.20;74.63
75146;BME280;63641;46.526;24.612;2022-10-31T03:23:28;97851.34;;;12.18;74.50
75146;BME280;63641;46.526;24.612;2022-10-31T03:25:56;97845.66;;;12.15;74.55
75146;BME280;63641;46.526;24.612;2022-10-31T03:28:30;97854.09;;;12.13;74.94
75146;BME280;63641;46.526;24.612;2022-10-31T03:31:01;97843.78;;;12.10;74.91
75146;BME280;63641;46.526;24.612;2022-10-31T03:33:35;97847.84;;;12.13;74.92
75146;BME280;63641;46.526;24.612;2022-10-31T03:36:04;97840.56;;;12.08;74.84
75146;BME280;63641;46.526;24.612;2022-10-31T03:38:33;97832.97;;;12.00;74.83
75146;BME280;63641;46.526;24.612;2022-10-31T03:41:03;97853.03;;;12.04;75.02
75146;BME280;63641;46.526;24.612;2022-10-31T03:43:37;97854.16;;;11.98;75.15
75146;BME280;63641;46.526;24.612;2022-10-31T03:46:07;97855.50;;;12.00;75.25
75146;BME280;63641;46.526;24.612;2022-10-31T03:48:34;97861.19;;;11.99;75.35
75146;BME280;63641;46.526;24.612;2022-10-31T03:51:07;97864.72;;;11.99;75.22
75146;BME280;63641;46.526;24.612;2022-10-31T03:56:33;97867.16;;;11.96;75.41
75146;BME280;63641;46.526;24.612;2022-10-31T03:59:08;97863.38;;;11.92;75.39
75146;BME280;63641;46.526;24.612;2022-10-31T04:01:40;97869.91;;;11.91;75.46
75146;BME280;63641;46.526;24.612;2022-10-31T04:04:10;97875.34;;;11.85;75.52
75146;BME280;63641;46.526;24.612;2022-10-31T04:06:38;97878.59;;;11.88;75.48
75146;BME280;63641;46.526;24.612;2022-10-31T04:09:08;97868.53;;;11.78;75.84
75146;BME280;63641;46.526;24.612;2022-10-31T04:11:40;97884.00;;;11.88;75.81
75146;BME280;63641;46.526;24.612;2022-10-31T04:14:10;97881.59;;;11.86;75.89
75146;BME280;63641;46.526;24.612;2022-10-31T04:16:41;97875.63;;;11.84;76.00
75146;BME280;63641;46.526;24.612;2022-10-31T04:19:10;97871.00;;;11.90;75.88
75146;BME280;63641;46.526;24.612;2022-10-31T04:21:37;97861.78;;;11.85;75.76
75146;BME280;63641;46.526;24.612;2022-10-31T04:24:04;97873.97;;;11.93;75.73
75146;BME280;63641;46.526;24.612;2022-10-31T04:26:31;97875.59;;;11.89;75.46
75146;BME280;63641;46.526;24.612;2022-10-31T04:28:58;97875.03;;;11.92;75.77
75146;BME280;63641;46.526;24.612;2022-10-31T04:31:24;97881.03;;;11.94;75.55
75146;BME280;63641;46.526;24.612;2022-10-31T04:33:51;97878.56;;;11.93;75.69
75146;BME280;63641;46.526;24.612;2022-10-31T04:36:18;97878.56;;;11.93;75.56
75146;BME280;63641;46.526;24.612;2022-10-31T04:38:44;97888.34;;;11.94;75.66
75146;BME280;63641;46.526;24.612;2022-10-31T04:41:11;97879.94;;;11.90;75.75
75146;BME280;63641;46.526;24.612;2022-10-31T04:43:38;97886.69;;;11.93;75.56
75146;BME280;63641;46.526;24.612;2022-10-31T04:46:05;97878.56;;;11.93;75.51
75146;BME280;63641;46.526;24.612;2022-10-31T04:48:32;97886.69;;;11.93;75.57
75146;BME280;63641;46.526;24.612;2022-10-31T04:51:02;97893.78;;;11.94;75.71
75146;BME280;63641;46.526;24.612;2022-10-31T04:53:29;97880.50;;;11.87;75.65
75146;BME280;63641;46.526;24.612;2022-10-31T04:55:58;97890.00;;;11.90;75.85
75146;BME280;63641;46.526;24.612;2022-10-31T04:58:26;97894.56;;;11.89;76.00
75146;BME280;63641;46.526;24.612;2022-10-31T05:00:54;97891.88;;;11.89;76.02
75146;BME280;63641;46.526;24.612;2022-10-31T05:03:21;97881.84;;;11.84;76.01
75146;BME280;63641;46.526;24.612;2022-10-31T05:05:48;97887.28;;;11.90;76.26
75146;BME280;63641;46.526;24.612;2022-10-31T05:08:15;97885.13;;;11.87;76.16
75146;BME280;63641;46.526;24.612;2022-10-31T05:10:42;97881.59;;;11.86;75.99
75146;BME280;63641;46.526;24.612;2022-10-31T05:13:10;97892.13;;;11.93;75.98
75146;BME280;63641;46.526;24.612;2022-10-31T05:15:37;97885.63;;;11.89;75.89
75146;BME280;63641;46.526;24.612;2022-10-31T05:18:04;97881.84;;;11.90;75.80
75146;BME280;63641;46.526;24.612;2022-10-31T05:20:31;97890.25;;;11.93;75.92
75146;BME280;63641;46.526;24.612;2022-10-31T05:22:58;97883.22;;;11.87;75.82
75146;BME280;63641;46.526;24.612;2022-10-31T05:25:27;97907.31;;;11.99;75.81
75146;BME280;63641;46.526;24.612;2022-10-31T05:27:55;97906.22;;;12.00;75.81
75146;BME280;63641;46.526;24.612;2022-10-31T05:30:25;97910.56;;;12.01;75.81
75146;BME280;63641;46.526;24.612;2022-10-31T05:32:52;97897.03;;;11.91;75.70
75146;BME280;63641;46.526;24.612;2022-10-31T05:35:31;97904.06;;;11.92;75.85
75146;BME280;63641;46.526;24.612;2022-10-31T05:37:58;97912.50;;;11.90;75.90
75146;BME280;63641;46.526;24.612;2022-10-31T05:40:27;97914.94;;;11.87;76.07
75146;BME280;63641;46.526;24.612;2022-10-31T05:42:55;97916.56;;;11.82;75.87
75146;BME280;63641;46.526;24.612;2022-10-31T05:45:23;97903.28;;;11.76;75.97
75146;BME280;63641;46.526;24.612;2022-10-31T05:47:57;97919.25;;;11.82;76.20
75146;BME280;63641;46.526;24.612;2022-10-31T05:50:27;97913.28;;;11.80;76.31
75146;BME280;63641;46.526;24.612;2022-10-31T05:52:55;97896.78;;;11.72;76.24
75146;BME280;63641;46.526;24.612;2022-10-31T05:55:23;97903.00;;;11.72;76.25
75146;BME280;63641;46.526;24.612;2022-10-31T05:57:49;97916.28;;;11.74;76.53
75146;BME280;63641;46.526;24.612;2022-10-31T06:00:17;97924.16;;;11.75;76.53
75146;BME280;63641;46.526;24.612;2022-10-31T06:02:44;97917.09;;;11.74;76.53
75146;BME280;63641;46.526;24.612;2022-10-31T06:05:11;97930.91;;;11.83;76.42
75146;BME280;63641;46.526;24.612;2022-10-31T06:07:38;97929.84;;;11.84;76.41
75146;BME280;63641;46.526;24.612;2022-10-31T06:10:06;97929.81;;;11.89;76.37
75146;BME280;63641;46.526;24.612;2022-10-31T06:12:35;97933.38;;;11.90;76.35
75146;BME280;63641;46.526;24.612;2022-10-31T06:15:05;97924.13;;;11.85;76.30
75146;BME280;63641;46.526;24.612;2022-10-31T06:17:33;97912.25;;;11.71;76.38
75146;BME280;63641;46.526;24.612;2022-10-31T06:20:01;97939.03;;;11.83;76.56
75146;BME280;63641;46.526;24.612;2022-10-31T06:22:28;97931.75;;;11.83;76.49
75146;BME280;63641;46.526;24.612;2022-10-31T06:24:54;97940.94;;;11.82;76.60
75146;BME280;63641;46.526;24.612;2022-10-31T06:27:21;97946.13;;;11.84;76.53
75146;BME280;63641;46.526;24.612;2022-10-31T06:29:48;97949.91;;;11.83;76.54
75146;BME280;63641;46.526;24.612;2022-10-31T06:32:15;97939.31;;;11.76;76.62
75146;BME280;63641;46.526;24.612;2022-10-31T06:34:43;97945.81;;;11.80;76.61
75146;BME280;63641;46.526;24.612;2022-10-31T06:37:11;97934.97;;;11.80;76.58
75146;BME280;63641;46.526;24.612;2022-10-31T06:39:38;97933.06;;;11.81;76.67
75146;BME280;63641;46.526;24.612;2022-10-31T06:42:05;97927.66;;;11.81;76.60
75146;BME280;63641;46.526;24.612;2022-10-31T06:44:32;97944.75;;;11.92;76.58
75146;BME280;63641;46.526;24.612;2022-10-31T06:46:59;97930.09;;;11.82;76.41
75146;BME280;63641;46.526;24.612;2022-10-31T06:49:26;97956.94;;;11.99;76.30
75146;BME280;63641;46.526;24.612;2022-10-31T06:51:52;97953.97;;;12.01;76.26
75146;BME280;63641;46.526;24.612;2022-10-31T06:54:19;97935.00;;;11.91;76.34
75146;BME280;63641;46.526;24.612;2022-10-31T06:56:46;97961.78;;;12.07;76.33
75146;BME280;63641;46.526;24.612;2022-10-31T06:59:16;97949.59;;;12.05;76.18
75146;BME280;63641;46.526;24.612;2022-10-31T07:01:43;97960.72;;;12.08;76.17
75146;BME280;63641;46.526;24.612;2022-10-31T07:04:10;97953.94;;;12.06;76.24
75146;BME280;63641;46.526;24.612;2022-10-31T07:06:37;97960.19;;;12.12;75.99
75146;BME280;63641;46.526;24.612;2022-10-31T07:09:05;97963.97;;;12.11;75.79
75146;BME280;63641;46.526;24.612;2022-10-31T07:11:32;97951.22;;;12.06;76.09
75146;BME280;63641;46.526;24.612;2022-10-31T07:13:59;97964.22;;;12.14;75.70
75146;BME280;63641;46.526;24.612;2022-10-31T07:16:26;97955.81;;;12.11;75.79
75146;BME280;63641;46.526;24.612;2022-10-31T07:18:53;97956.09;;;12.09;75.72
75146;BME280;63641;46.526;24.612;2022-10-31T07:21:19;97961.25;;;12.16;75.54
75146;BME280;63641;46.526;24.612;2022-10-31T07:23:49;97959.06;;;12.18;75.40
75146;BME280;63641;46.526;24.612;2022-10-31T07:26:16;97946.06;;;12.09;75.28
75146;BME280;63641;46.526;24.612;2022-10-31T07:28:42;97955.81;;;12.16;75.25
75146;BME280;63641;46.526;24.612;2022-10-31T07:31:09;97946.59;;;12.06;75.32
75146;BME280;63641;46.526;24.612;2022-10-31T07:33:36;97942.81;;;12.02;75.29
75146;BME280;63641;46.526;24.612;2022-10-31T07:36:03;97956.66;;;12.06;75.18
75146;BME280;63641;46.526;24.612;2022-10-31T07:38:29;97951.78;;;12.03;75.29
75146;BME280;63641;46.526;24.612;2022-10-31T07:40:56;97946.34;;;12.03;75.15
75146;BME280;63641;46.526;24.612;2022-10-31T07:43:23;97930.66;;;11.95;74.99
75146;BME280;63641;46.526;24.612;2022-10-31T07:45:53;97956.09;;;12.09;74.75
75146;BME280;63641;46.526;24.612;2022-10-31T07:48:20;97960.44;;;12.10;74.90
75146;BME280;63641;46.526;24.612;2022-10-31T07:50:47;97963.16;;;12.15;74.79
75146;BME280;63641;46.526;24.612;2022-10-31T07:53:14;97955.28;;;12.08;74.62
75146;BME280;63641;46.526;24.612;2022-10-31T07:55:42;97949.31;;;12.06;74.71
75146;BME280;63641;46.526;24.612;2022-10-31T07:58:11;97964.22;;;12.14;74.79
75146;BME280;63641;46.526;24.612;2022-10-31T08:00:39;97962.56;;;12.18;74.86
75146;BME280;63641;46.526;24.612;2022-10-31T08:03:09;97962.31;;;12.20;74.63
75146;BME280;63641;46.526;24.612;2022-10-31T08:05:36;97958.00;;;12.08;74.65
75146;BME280;63641;46.526;24.612;2022-10-31T08:08:04;97964.75;;;12.11;74.75
75146;BME280;63641;46.526;24.612;2022-10-31T08:10:32;97953.94;;;12.06;74.63
75146;BME280;63641;46.526;24.612;2022-10-31T08:13:10;97974.53;;;12.17;74.63
75146;BME280;63641;46.526;24.612;2022-10-31T08:15:38;97967.47;;;12.16;74.64
75146;BME280;63641;46.526;24.612;2022-10-31T08:18:13;97970.16;;;12.21;74.43
75146;BME280;63641;46.526;24.612;2022-10-31T08:20:40;97970.72;;;12.23;74.31
75146;BME280;63641;46.526;24.612;2022-10-31T08:23:09;97965.28;;;12.23;74.10
75146;BME280;63641;46.526;24.612;2022-10-31T08:25:37;97971.25;;;12.25;74.30
75146;BME280;63641;46.526;24.612;2022-10-31T08:28:05;97982.63;;;12.32;74.16
75146;BME280;63641;46.526;24.612;2022-10-31T08:30:35;97986.97;;;12.33;74.16
75146;BME280;63641;46.526;24.612;2022-10-31T08:35:31;97967.97;;;12.28;74.24
75146;BME280;63641;46.526;24.612;2022-10-31T08:37:58;97971.50;;;12.34;74.09
75146;BME280;63641;46.526;24.612;2022-10-31T08:40:26;97976.09;;;12.39;74.01
75146;BME280;63641;46.526;24.612;2022-10-31T08:43:09;97985.00;;;12.44;73.96
75146;BME280;63641;46.526;24.612;2022-10-31T08:45:37;97984.22;;;12.39;73.92
75146;BME280;63641;46.526;24.612;2022-10-31T08:48:05;97983.13;;;12.40;74.04
75146;BME280;63641;46.526;24.612;2022-10-31T08:50:33;97986.91;;;12.44;74.02
75146;BME280;63641;46.526;24.612;2022-10-31T08:53:17;97957.69;;;12.20;74.16
75146;BME280;63641;46.526;24.612;2022-10-31T08:55:46;97980.97;;;12.42;73.99
75146;BME280;63641;46.526;24.612;2022-10-31T08:58:17;97992.34;;;12.44;74.01
75146;BME280;63641;46.526;24.612;2022-10-31T09:00:46;97993.72;;;12.46;73.87
75146;BME280;63641;46.526;24.612;2022-10-31T09:03:31;97983.41;;;12.43;73.76
75146;BME280;63641;46.526;24.612;2022-10-31T09:05:59;97997.75;;;12.54;73.70
75146;BME280;63641;46.526;24.612;2022-10-31T09:08:29;98006.44;;;12.56;73.51
75146;BME280;63641;46.526;24.612;2022-10-31T09:10:57;97987.72;;;12.49;73.59
75146;BME280;63641;46.526;24.612;2022-10-31T09:13:24;97987.97;;;12.53;73.53
75146;BME280;63641;46.526;24.612;2022-10-31T09:15:53;97989.31;;;12.55;73.42
75146;BME280;63641;46.526;24.612;2022-10-31T09:18:23;97996.91;;;12.64;73.37
75146;BME280;63641;46.526;24.612;2022-10-31T09:20:50;97996.91;;;12.64;73.37
75146;BME280;63641;46.526;24.612;2022-10-31T09:23:20;97992.25;;;12.69;73.43
75146;BME280;63641;46.526;24.612;2022-10-31T09:25:50;97975.44;;;12.62;73.09
75146;BME280;63641;46.526;24.612;2022-10-31T09:28:22;97999.56;;;12.74;73.07
75146;BME280;63641;46.526;24.612;2022-10-31T09:30:51;98003.06;;;12.79;73.06
75146;BME280;63641;46.526;24.612;2022-10-31T09:33:18;97991.16;;;12.75;73.19
75146;BME280;63641;46.526;24.612;2022-10-31T09:35:45;97994.63;;;12.81;73.07
75146;BME280;63641;46.526;24.612;2022-10-31T09:38:15;98002.53;;;12.82;72.81
75146;BME280;63641;46.526;24.612;2022-10-31T09:40:45;97984.91;;;12.75;73.03
75146;BME280;63641;46.526;24.612;2022-10-31T09:43:40;98003.03;;;12.90;72.93
75146;BME280;63641;46.526;24.612;2022-10-31T09:51:33;98004.13;;;12.84;72.70
75146;BME280;63641;46.526;24.612;2022-10-31T09:54:19;97997.63;;;12.79;72.86
75146;BME280;63641;46.526;24.612;2022-10-31T09:56:47;98006.59;;;12.85;72.79
75146;BME280;63641;46.526;24.612;2022-10-31T09:59:24;97993.81;;;12.80;72.59
75146;BME280;63641;46.526;24.612;2022-10-31T10:01:59;98000.88;;;12.87;72.44
75146;BME280;63641;46.526;24.612;2022-10-31T10:04:34;98005.75;;;12.90;72.55
75146;BME280;63641;46.526;24.612;2022-10-31T10:07:13;97993.81;;;12.80;72.42
75146;BME280;63641;46.526;24.612;2022-10-31T10:09:44;97998.41;;;12.90;72.78
75146;BME280;63641;46.526;24.612;2022-10-31T10:14:54;98004.50;;;13.16;72.74
75146;BME280;63641;46.526;24.612;2022-10-31T10:17:44;98009.38;;;13.24;72.35
75146;BME280;63641;46.526;24.612;2022-10-31T10:20:37;98000.66;;;13.27;72.14
75146;BME280;63641;46.526;24.612;2022-10-31T10:25:49;97990.59;;;13.23;72.04
75146;BME280;63641;46.526;24.612;2022-10-31T10:28:25;97991.16;;;13.25;71.82
75146;BME280;63641;46.526;24.612;2022-10-31T10:31:09;97987.88;;;13.28;71.56
75146;BME280;63641;46.526;24.612;2022-10-31T10:33:49;97988.94;;;13.32;71.40
75146;BME280;63641;46.526;24.612;2022-10-31T10:36:26;97979.72;;;13.28;71.39
75146;BME280;63641;46.526;24.612;2022-10-31T10:38:59;97981.59;;;13.33;71.41
75146;BME280;63641;46.526;24.612;2022-10-31T10:41:31;97985.13;;;13.33;71.08
75146;BME280;63641;46.526;24.612;2022-10-31T10:44:00;97979.72;;;13.23;71.11
75146;BME280;63641;46.526;24.612;2022-10-31T10:57:56;97974.97;;;13.44;70.67
75146;BME280;63641;46.526;24.612;2022-10-31T11:02:55;97972.25;;;13.44;70.28
75146;BME280;63641;46.526;24.612;2022-10-31T11:07:51;97970.13;;;13.41;70.44
75146;BME280;63641;46.526;24.612;2022-10-31T11:10:18;97969.03;;;13.42;70.10
75146;BME280;63641;46.526;24.612;2022-10-31T11:13:01;97971.75;;;13.42;70.39
75146;BME280;63641;46.526;24.612;2022-10-31T11:15:31;97972.75;;;13.51;70.45
75146;BME280;63641;46.526;24.612;2022-10-31T11:17:58;97979.25;;;13.55;70.18
75146;BME280;63641;46.526;24.612;2022-10-31T11:20:34;97973.81;;;13.55;69.94
75146;BME280;63641;46.526;24.612;2022-10-31T11:23:10;97981.63;;;13.62;69.82
75146;BME280;63641;46.526;24.612;2022-10-31T11:25:49;97984.88;;;13.64;69.85
75146;BME280;63641;46.526;24.612;2022-10-31T11:28:17;97976.44;;;13.65;69.55
75146;BME280;63641;46.526;24.612;2022-10-31T11:33:37;97970.16;;;13.70;69.88
75146;BME280;63641;46.526;24.612;2022-10-31T11:36:26;97961.16;;;13.69;69.89
75146;BME280;63641;46.526;24.612;2022-10-31T11:38:53;97962.81;;;13.70;70.14
75146;BME280;63641;46.526;24.612;2022-10-31T11:41:29;97962.56;;;13.67;70.02
75146;BME280;63641;46.526;24.612;2022-10-31T11:44:00;97956.84;;;13.68;69.88
75146;BME280;63641;46.526;24.612;2022-10-31T11:46:48;97947.06;;;13.67;69.92
75146;BME280;63641;46.526;24.612;2022-10-31T11:49:17;97963.56;;;13.76;69.93
75146;BME280;63641;46.526;24.612;2022-10-31T11:51:51;97952.44;;;13.72;69.86
75146;BME280;63641;46.526;24.612;2022-10-31T11:54:27;97948.41;;;13.70;69.83
75146;BME280;63641;46.526;24.612;2022-10-31T11:56:55;97963.28;;;13.77;69.88
75146;BME280;63641;46.526;24.612;2022-10-31T11:59:25;97952.69;;;13.76;69.87
75146;BME280;63641;46.526;24.612;2022-10-31T12:01:54;97951.13;;;13.70;69.71
75146;BME280;63641;46.526;24.612;2022-10-31T12:04:34;97961.66;;;13.76;69.81
75146;BME280;63641;46.526;24.612;2022-10-31T12:07:02;97949.72;;;13.72;69.76
75146;BME280;63641;46.526;24.612;2022-10-31T12:09:32;97957.06;;;13.72;69.61
75146;BME280;63641;46.526;24.612;2022-10-31T12:14:50;97963.28;;;13.77;69.35
75146;BME280;63641;46.526;24.612;2022-10-31T12:17:23;97957.56;;;13.79;69.30
75146;BME280;63641;46.526;24.612;2022-10-31T12:20:16;97955.88;;;13.83;69.21
75146;BME280;63641;46.526;24.612;2022-10-31T12:24:07;97949.56;;;13.88;69.08
75146;BME280;63641;46.526;24.612;2022-10-31T12:29:05;97956.59;;;13.94;69.00
75146;BME280;63641;46.526;24.612;2022-10-31T12:34:33;97944.66;;;13.90;68.91
75146;BME280;63641;46.526;24.612;2022-10-31T12:42:17;97954.69;;;13.94;68.90
75146;BME280;63641;46.526;24.612;2022-10-31T12:50:27;97948.66;;;13.97;68.90
75146;BME280;63641;46.526;24.612;2022-10-31T12:56:10;97959.25;;;13.99;68.71
75146;BME280;63641;46.526;24.612;2022-10-31T12:58:45;97948.91;;;14.01;68.98
75146;BME280;63641;46.526;24.612;2022-10-31T13:01:21;97952.97;;;14.04;69.08
75146;BME280;63641;46.526;24.612;2022-10-31T13:06:47;97941.78;;;14.05;68.60
75146;BME280;63641;46.526;24.612;2022-10-31T13:09:19;97942.34;;;14.02;68.54
75146;BME280;63641;46.526;24.612;2022-10-31T13:11:53;97946.97;;;14.07;68.64
75146;BME280;63641;46.526;24.612;2022-10-31T13:14:50;97934.41;;;14.11;68.52
75146;BME280;63641;46.526;24.612;2022-10-31T13:17:22;97949.53;;;14.17;68.21
75146;BME280;63641;46.526;24.612;2022-10-31T13:20:05;97938.16;;;14.15;68.15
75146;BME280;63641;46.526;24.612;2022-10-31T13:22:38;97943.28;;;14.16;68.13
75146;BME280;63641;46.526;24.612;2022-10-31T13:27:46;97940.31;;;14.18;68.10
75146;BME280;63641;46.526;24.612;2022-10-31T13:38:19;97942.38;;;14.26;68.64
75146;BME280;63641;46.526;24.612;2022-10-31T13:41:02;97926.47;;;14.14;68.33
75146;BME280;63641;46.526;24.612;2022-10-31T13:46:38;97931.75;;;14.24;68.08
75146;BME280;63641;46.526;24.612;2022-10-31T13:52:12;97934.09;;;14.12;68.56
75146;BME280;63641;46.526;24.612;2022-10-31T13:54:51;97932.50;;;14.06;68.53
75146;BME280;63641;46.526;24.612;2022-10-31T13:57:37;97927.91;;;14.07;68.34
75146;BME280;63641;46.526;24.612;2022-10-31T14:00:24;97928.16;;;14.10;68.24
75146;BME280;63641;46.526;24.612;2022-10-31T14:02:53;97914.06;;;14.03;68.28
75146;BME280;63641;46.526;24.612;2022-10-31T14:05:31;97906.47;;;14.00;68.04
75146;BME280;63641;46.526;24.612;2022-10-31T14:08:02;97915.16;;;14.02;68.08
75146;BME280;63641;46.526;24.612;2022-10-31T14:10:36;97922.69;;;14.10;67.93
75146;BME280;63641;46.526;24.612;2022-10-31T14:13:17;97930.25;;;14.13;67.94
75146;BME280;63641;46.526;24.612;2022-10-31T14:16:23;97930.25;;;14.13;67.76
75146;BME280;63641;46.526;24.612;2022-10-31T14:19:03;97933.84;;;14.09;67.76
75146;BME280;63641;46.526;24.612;2022-10-31T14:21:38;97923.16;;;13.93;67.93
75146;BME280;63641;46.526;24.612;2022-10-31T14:26:54;97929.38;;;13.94;68.21
75146;BME280;63641;46.526;24.612;2022-10-31T14:29:29;97927.72;;;13.98;68.02
75146;BME280;63641;46.526;24.612;2022-10-31T14:32:01;97908.78;;;13.88;67.85
75146;BME280;63641;46.526;24.612;2022-10-31T14:35:14;97924.75;;;13.94;68.25
75146;BME280;63641;46.526;24.612;2022-10-31T14:50:54;97909.00;;;13.67;68.62
75146;BME280;63641;46.526;24.612;2022-10-31T14:55:55;97914.19;;;13.64;68.62
75146;BME280;63641;46.526;24.612;2022-10-31T14:58:42;97897.63;;;13.60;68.51
75146;BME280;63641;46.526;24.612;2022-10-31T15:01:25;97909.22;;;13.71;68.55
75146;BME280;63641;46.526;24.612;2022-10-31T15:03:58;97897.06;;;13.63;68.29
75146;BME280;63641;46.526;24.612;2022-10-31T15:09:34;97919.47;;;13.79;68.45
75146;BME280;63641;46.526;24.612;2022-10-31T15:12:24;97917.06;;;13.77;68.50
75146;BME280;63641;46.526;24.612;2022-10-31T15:14:51;97914.09;;;13.74;68.44